Time;durP1;ratioP1;P1;durP2;ratioP2;P2;SDS_P1;SDS_P2;PMS_P1;PMS_P2;Temp;Humidity;BMP_temperature;BMP_pressure;BME280_temperature;BME280_humidity;BME280_pressure;Samples;Min_cycle;Max_cycle;Signal;HPM_P1;HPM_P2
2022/04/25 00:01:04;;;;;;;5.18;4.68;;;9.80;99.90;;;;;;7368787;19;21068;-75
2022/04/25 00:03:30;;;;;;;4.33;3.93;;;9.80;99.90;;;;;;7374634;19;20348;-75
2022/04/25 00:05:56;;;;;;;4.75;4.25;;;9.80;99.90;;;;;;7373831;19;20355;-75
2022/04/25 00:08:21;;;;;;;4.43;4.03;;;9.80;99.90;;;;;;7376439;19;20709;-75
2022/04/25 00:10:47;;;;;;;4.43;4.03;;;9.80;99.90;;;;;;7367437;19;20361;-74
2022/04/25 00:13:14;;;;;;;4.80;4.30;;;9.90;99.90;;;;;;7374980;19;20352;-74
2022/04/25 00:15:40;;;;;;;5.63;5.10;;;9.90;99.90;;;;;;7373252;19;20361;-75
2022/04/25 00:18:06;;;;;;;4.70;4.30;;;9.70;99.90;;;;;;7375746;19;20931;-74
2022/04/25 00:20:32;;;;;;;4.80;4.40;;;9.70;99.90;;;;;;7370859;19;20332;-75
2022/04/25 00:23:00;;;;;;;4.53;4.13;;;9.70;99.90;;;;;;7373580;19;20787;-74
2022/04/25 00:25:28;;;;;;;5.50;5.00;;;9.70;99.90;;;;;;7372513;19;20797;-74
2022/04/25 00:27:53;;;;;;;5.40;4.75;;;9.70;99.90;;;;;;7377511;19;20300;-75
2022/04/25 00:30:19;;;;;;;6.07;4.70;;;9.70;99.90;;;;;;7368129;19;20846;-75
2022/04/25 00:32:45;;;;;;;5.30;4.80;;;9.60;99.90;;;;;;7374413;19;20356;-74
2022/04/25 00:35:11;;;;;;;5.20;4.70;;;9.50;99.90;;;;;;7374210;19;20362;-74
2022/04/25 00:37:36;;;;;;;5.22;4.82;;;9.70;99.90;;;;;;7374257;19;21210;-74
2022/04/25 00:40:02;;;;;;;6.83;5.37;;;9.60;99.90;;;;;;7346904;19;20321;-74
2022/04/25 00:42:27;;;;;;;5.20;4.78;;;9.50;99.90;;;;;;7372582;19;20337;-74
2022/04/25 00:44:53;;;;;;;6.27;5.67;;;9.60;99.90;;;;;;7372942;19;20411;-73
2022/04/25 00:47:18;;;;;;;7.70;5.87;;;9.40;99.90;;;;;;7376354;19;21282;-73
2022/04/25 00:49:44;;;;;;;5.10;4.60;;;9.30;99.90;;;;;;7370160;19;20372;-74
2022/04/25 00:52:10;;;;;;;4.63;4.23;;;9.40;99.90;;;;;;7371500;19;20336;-76
2022/04/25 00:54:35;;;;;;;4.90;4.50;;;9.40;99.90;;;;;;7372969;19;20329;-74
2022/04/25 00:57:01;;;;;;;5.07;4.57;;;9.50;99.90;;;;;;7373233;19;20316;-73
2022/04/25 00:59:26;;;;;;;5.07;4.47;;;9.50;99.90;;;;;;7369860;19;20443;-74
2022/04/25 01:01:52;;;;;;;4.60;4.20;;;9.70;99.90;;;;;;7371215;19;20301;-74
2022/04/25 01:04:19;;;;;;;5.40;4.90;;;9.60;99.90;;;;;;7372273;19;20909;-74
2022/04/25 01:06:45;;;;;;;4.65;4.25;;;9.60;99.90;;;;;;7374338;19;20404;-74
2022/04/25 01:09:10;;;;;;;4.70;4.30;;;9.50;99.90;;;;;;7370892;19;20335;-75
2022/04/25 01:11:36;;;;;;;4.77;4.27;;;9.50;99.90;;;;;;7372011;19;20356;-74
2022/04/25 01:14:17;;;;;;;5.30;4.80;;;9.50;99.90;;;;;;7373283;19;20376;-74
2022/04/25 01:16:43;;;;;;;4.72;4.25;;;9.40;99.90;;;;;;7249224;19;2004556;-74
2022/04/25 01:19:09;;;;;;;5.15;4.72;;;9.40;99.90;;;;;;7369768;19;20365;-75
2022/04/25 01:21:41;;;;;;;5.10;4.60;;;9.50;99.90;;;;;;7369090;19;20345;-73
2022/04/25 01:29:36;;;;;;;4.82;4.30;;;9.30;99.90;;;;;;7346990;19;20370;-74
2022/04/25 01:32:01;;;;;;;4.65;4.25;;;9.30;99.90;;;;;;7367372;19;21267;-73
2022/04/25 01:34:27;;;;;;;4.27;3.87;;;9.30;99.90;;;;;;7372150;19;20317;-74
2022/04/25 01:36:53;;;;;;;4.43;4.03;;;9.30;99.90;;;;;;7372048;19;20365;-73
2022/04/25 01:39:18;;;;;;;4.83;4.37;;;9.30;99.90;;;;;;7369118;19;20341;-73
2022/04/25 01:41:44;;;;;;;4.87;4.10;;;9.30;99.90;;;;;;7370924;19;20356;-73
2022/04/25 01:44:10;;;;;;;4.10;3.70;;;9.20;99.90;;;;;;7369090;19;20349;-73
2022/04/25 01:46:38;;;;;;;5.90;4.70;;;9.30;99.90;;;;;;7366971;19;20339;-73
2022/04/25 01:49:04;;;;;;;6.20;4.20;;;9.20;99.90;;;;;;7367828;19;20424;-73
2022/04/25 01:51:30;;;;;;;4.40;4.00;;;9.10;99.90;;;;;;7365518;19;21162;-74
2022/04/25 01:53:56;;;;;;;4.95;4.45;;;9.10;99.90;;;;;;7372119;19;20343;-74
2022/04/25 01:56:21;;;;;;;5.63;4.40;;;9.00;99.90;;;;;;7371728;19;20352;-73
2022/04/25 01:58:47;;;;;;;3.97;3.55;;;8.90;99.90;;;;;;7373623;19;20374;-74
2022/04/25 02:01:12;;;;;;;4.00;3.60;;;8.90;99.90;;;;;;7366089;19;20373;-73
2022/04/25 02:03:40;;;;;;;6.10;4.37;;;8.90;99.90;;;;;;7371566;19;20348;-74
2022/04/25 02:06:05;;;;;;;4.80;4.28;;;8.80;99.90;;;;;;7369830;19;20340;-74
2022/04/25 02:08:31;;;;;;;5.73;4.40;;;8.80;99.90;;;;;;7376314;19;20344;-74
2022/04/25 02:13:41;;;;;;;6.80;4.05;;;8.80;99.90;;;;;;7369337;19;20398;-74
2022/04/25 02:16:08;;;;;;;3.73;3.43;;;8.80;99.90;;;;;;7369255;19;20324;-74
2022/04/25 02:18:34;;;;;;;4.72;3.85;;;8.70;99.90;;;;;;7375004;19;20331;-73
2022/04/25 02:20:59;;;;;;;4.30;3.90;;;8.70;99.90;;;;;;7366420;19;20341;-74
2022/04/25 02:23:25;;;;;;;5.93;4.20;;;8.70;99.90;;;;;;7372556;19;20961;-77
2022/04/25 02:25:51;;;;;;;4.90;4.22;;;8.70;99.90;;;;;;7370707;19;20370;-74
2022/04/25 02:28:16;;;;;;;4.10;3.70;;;8.60;99.90;;;;;;7372619;19;20838;-74
2022/04/25 02:30:42;;;;;;;4.80;4.00;;;8.60;99.90;;;;;;7367240;19;20327;-74
2022/04/25 02:33:07;;;;;;;5.50;3.60;;;8.50;99.90;;;;;;7370536;19;20340;-74
2022/04/25 02:35:33;;;;;;;3.90;3.50;;;8.50;99.90;;;;;;7370331;19;20341;-73
2022/04/25 02:37:58;;;;;;;5.57;4.03;;;8.50;99.90;;;;;;7374058;19;20321;-74
2022/04/25 02:40:24;;;;;;;5.30;4.23;;;8.40;99.90;;;;;;7368959;19;21006;-74
2022/04/25 02:42:50;;;;;;;6.45;4.28;;;8.50;99.90;;;;;;7376140;19;20345;-74
2022/04/25 02:45:15;;;;;;;4.87;3.63;;;8.40;99.90;;;;;;7379052;19;20348;-74
2022/04/25 02:47:41;;;;;;;4.30;3.70;;;8.30;99.90;;;;;;7379911;19;20663;-73
2022/04/25 02:50:07;;;;;;;4.47;3.87;;;8.20;99.90;;;;;;7373697;19;20355;-74
2022/04/25 02:52:33;;;;;;;4.22;3.80;;;8.20;99.90;;;;;;7380431;19;20352;-74
2022/04/25 02:54:58;;;;;;;4.72;3.80;;;8.20;99.90;;;;;;7378317;19;20683;-74
2022/04/25 02:57:24;;;;;;;4.90;3.80;;;8.10;99.90;;;;;;7380929;19;20341;-74
2022/04/25 02:59:49;;;;;;;5.72;4.40;;;8.10;99.90;;;;;;7371617;19;20995;-74
2022/04/25 03:02:15;;;;;;;7.70;3.83;;;8.00;99.90;;;;;;7375475;19;20336;-74
2022/04/25 03:04:40;;;;;;;3.90;3.47;;;8.00;99.90;;;;;;7378328;19;20348;-74
2022/04/25 03:07:06;;;;;;;4.80;3.50;;;7.90;99.90;;;;;;7377895;19;20325;-74
2022/04/25 03:09:32;;;;;;;4.07;3.67;;;7.90;99.90;;;;;;7374737;19;20877;-74
2022/04/25 03:11:58;;;;;;;3.60;3.30;;;7.90;99.90;;;;;;7375683;19;20353;-74
2022/04/25 03:14:26;;;;;;;6.13;4.05;;;7.90;99.90;;;;;;7376814;19;20674;-74
2022/04/25 03:16:51;;;;;;;4.00;3.60;;;7.90;99.90;;;;;;7378126;19;20313;-74
2022/04/25 03:19:17;;;;;;;5.10;3.93;;;7.90;99.90;;;;;;7376241;19;20357;-74
2022/04/25 03:21:43;;;;;;;4.43;3.80;;;7.90;99.90;;;;;;7375905;19;20485;-73
2022/04/25 03:24:09;;;;;;;4.30;3.60;;;7.80;99.90;;;;;;7379547;19;20356;-74
2022/04/25 03:26:34;;;;;;;5.37;3.80;;;7.80;99.90;;;;;;7378594;19;20360;-74
2022/04/25 03:29:01;;;;;;;7.35;4.13;;;7.70;99.90;;;;;;7376325;19;20360;-74
2022/04/25 03:31:27;;;;;;;4.13;3.75;;;7.70;99.90;;;;;;7371496;19;20345;-74
2022/04/25 03:33:52;;;;;;;5.82;3.67;;;7.60;99.90;;;;;;7377279;19;21027;-74
2022/04/25 03:36:18;;;;;;;6.33;4.03;;;7.70;99.90;;;;;;7375482;19;20365;-74
2022/04/25 03:38:43;;;;;;;6.78;3.90;;;7.50;99.90;;;;;;7376292;19;21316;-73
2022/04/25 03:41:09;;;;;;;5.43;3.80;;;7.50;99.90;;;;;;7370511;19;20474;-73
2022/04/25 03:43:53;;;;;;;3.30;3.00;;;7.50;99.90;;;;;;7372178;19;20369;-74
2022/04/25 03:46:19;;;;;;;4.70;3.38;;;7.50;99.90;;;;;;7259212;19;2004306;-74
2022/04/25 03:48:45;;;;;;;5.30;3.93;;;7.50;99.90;;;;;;7375379;19;20325;-74
2022/04/25 03:51:11;;;;;;;5.03;3.60;;;7.40;99.90;;;;;;7371765;19;20355;-74
2022/04/25 03:53:38;;;;;;;4.97;3.70;;;7.40;99.90;;;;;;7377645;19;20328;-74
2022/04/25 03:58:48;;;;;;;6.25;4.25;;;7.30;99.90;;;;;;7377677;19;20352;-75
2022/04/25 04:01:14;;;;;;;3.90;3.60;;;7.30;99.90;;;;;;7370363;19;20368;-75
2022/04/25 04:03:39;;;;;;;5.60;3.70;;;7.20;99.90;;;;;;7374297;19;20332;-74
2022/04/25 04:06:07;;;;;;;5.90;3.90;;;7.20;99.90;;;;;;7374078;19;20416;-74
2022/04/25 04:08:33;;;;;;;5.38;3.63;;;7.10;99.90;;;;;;7379250;19;20317;-73
2022/04/25 04:10:58;;;;;;;8.77;4.27;;;7.10;99.90;;;;;;7373683;19;20316;-74
2022/04/25 04:13:25;;;;;;;5.25;4.05;;;7.10;99.90;;;;;;7372268;19;20361;-74
2022/04/25 04:15:51;;;;;;;5.47;3.55;;;7.00;99.90;;;;;;7373159;19;20369;-74
2022/04/25 04:18:17;;;;;;;4.30;3.58;;;7.10;99.90;;;;;;7376668;19;20965;-74
2022/04/25 04:20:42;;;;;;;3.67;3.38;;;7.20;99.90;;;;;;7366048;19;20367;-74
2022/04/25 04:23:08;;;;;;;5.63;3.50;;;7.10;99.90;;;;;;7373987;19;20363;-74
2022/04/25 04:25:33;;;;;;;4.45;3.85;;;7.10;99.90;;;;;;7372263;19;20343;-73
2022/04/25 04:27:59;;;;;;;5.77;3.73;;;7.10;99.90;;;;;;7377243;19;21153;-74
2022/04/25 04:30:25;;;;;;;5.07;4.00;;;7.10;99.90;;;;;;7369324;19;20328;-74
2022/04/25 04:32:51;;;;;;;4.80;3.73;;;7.20;99.90;;;;;;7372708;19;20353;-74
2022/04/25 04:36:17;;;;;;;5.32;3.75;;;7.10;99.90;;;;;;7371934;19;20325;-73
2022/04/25 04:38:04;;;;;;;4.18;3.47;;;7.10;99.90;;;;;;7376457;19;20429;-74
2022/04/25 04:40:30;;;;;;;5.82;4.10;;;7.10;99.90;;;;;;7365957;19;20366;-75
2022/04/25 04:42:56;;;;;;;5.17;3.90;;;7.20;99.90;;;;;;7375011;19;20419;-73
2022/04/25 04:45:21;;;;;;;5.55;3.60;;;7.10;99.90;;;;;;7372319;19;21113;-73
2022/04/25 04:47:47;;;;;;;5.80;4.27;;;7.10;99.90;;;;;;7376907;19;20846;-75
2022/04/25 04:50:16;;;;;;;5.25;4.18;;;7.10;99.90;;;;;;7367816;19;20385;-74
2022/04/25 04:52:46;;;;;;;5.90;4.05;;;7.10;99.90;;;;;;7371550;19;20357;-75
2022/04/25 04:55:12;;;;;;;4.07;3.67;;;7.10;99.90;;;;;;7371042;19;20349;-74
2022/04/25 04:57:38;;;;;;;5.10;4.00;;;7.20;99.90;;;;;;7374190;19;20325;-74
2022/04/25 05:00:05;;;;;;;5.90;4.30;;;7.10;99.90;;;;;;7366712;19;20349;-73
2022/04/25 05:02:31;;;;;;;4.68;4.00;;;7.10;99.90;;;;;;7366046;19;20868;-73
2022/04/25 05:04:57;;;;;;;7.28;4.80;;;7.10;99.90;;;;;;7371747;19;20394;-73
2022/04/25 05:07:22;;;;;;;8.43;4.50;;;7.10;99.90;;;;;;7373947;19;20686;-72
2022/04/25 05:09:48;;;;;;;5.53;3.90;;;7.10;99.90;;;;;;7367965;19;20337;-72
2022/04/25 05:12:14;;;;;;;5.57;4.03;;;7.10;99.90;;;;;;7368939;19;20362;-73
2022/04/25 05:14:40;;;;;;;4.68;4.03;;;7.10;99.90;;;;;;7366458;19;20324;-73
2022/04/25 05:17:05;;;;;;;5.38;4.45;;;7.20;99.90;;;;;;7371664;19;20345;-73
2022/04/25 05:19:31;;;;;;;4.60;4.10;;;7.30;99.90;;;;;;7369379;19;20353;-72
2022/04/25 05:21:56;;;;;;;5.27;4.50;;;7.40;99.90;;;;;;7368177;19;20867;-73
2022/04/25 05:24:22;;;;;;;5.30;4.13;;;7.30;99.90;;;;;;7369883;19;20345;-72
2022/04/25 05:26:48;;;;;;;4.93;4.20;;;7.40;99.90;;;;;;7368712;19;20352;-73
2022/04/25 05:29:16;;;;;;;4.75;4.20;;;7.40;99.90;;;;;;7366801;19;21147;-73
2022/04/25 05:31:42;;;;;;;5.30;4.80;;;7.50;99.90;;;;;;7364978;19;20867;-73
2022/04/25 05:34:09;;;;;;;7.27;4.67;;;7.40;99.90;;;;;;7368319;19;20715;-72
2022/04/25 05:36:35;;;;;;;5.82;4.78;;;7.40;99.90;;;;;;7369653;19;20312;-73
2022/04/25 05:39:00;;;;;;;5.90;4.80;;;7.30;99.90;;;;;;7365838;19;20908;-73
2022/04/25 05:41:26;;;;;;;5.30;4.80;;;7.30;99.90;;;;;;7366686;19;20355;-73
2022/04/25 05:43:51;;;;;;;4.70;4.20;;;7.20;99.90;;;;;;7372274;19;21071;-73
2022/04/25 05:46:19;;;;;;;6.40;4.95;;;7.20;99.90;;;;;;7370570;19;20386;-72
2022/04/25 05:54:12;;;;;;;6.53;5.25;;;7.20;99.90;;;;;;7370965;19;20360;-74
2022/04/25 05:56:39;;;;;;;7.57;5.32;;;7.10;99.90;;;;;;7373072;19;20317;-72
2022/04/25 05:59:04;;;;;;;5.78;4.80;;;7.10;99.90;;;;;;7371142;19;20993;-73
2022/04/25 06:01:30;;;;;;;6.73;5.03;;;7.10;99.90;;;;;;7367128;19;20329;-73
2022/04/25 06:03:56;;;;;;;6.97;5.00;;;7.10;99.90;;;;;;7372636;19;20324;-73
2022/04/25 06:06:23;;;;;;;6.90;5.70;;;7.10;99.90;;;;;;7349929;19;20300;-72
2022/04/25 06:08:49;;;;;;;6.43;5.10;;;7.10;99.90;;;;;;7374599;19;20324;-75
2022/04/25 06:11:15;;;;;;;5.93;4.85;;;7.10;99.90;;;;;;7367200;19;20359;-74
2022/04/25 06:13:44;;;;;;;5.73;4.60;;;7.10;99.90;;;;;;7372005;19;20344;-75
2022/04/25 06:16:11;;;;;;;6.82;4.68;;;7.10;99.90;;;;;;7375074;19;20341;-74
2022/04/25 06:18:36;;;;;;;5.57;5.07;;;7.10;99.90;;;;;;7380646;19;20340;-73
2022/04/25 06:21:02;;;;;;;5.90;4.93;;;7.10;99.90;;;;;;7370774;19;20356;-75
2022/04/25 06:23:27;;;;;;;6.20;5.57;;;7.00;99.90;;;;;;7375355;19;20328;-75
2022/04/25 06:25:53;;;;;;;5.50;5.00;;;6.90;99.90;;;;;;7377158;19;21011;-75
2022/04/25 06:28:19;;;;;;;6.07;5.20;;;7.00;99.90;;;;;;7378247;19;20345;-75
2022/04/25 06:30:44;;;;;;;6.45;5.38;;;7.10;99.90;;;;;;7370943;19;20344;-76
2022/04/25 06:33:10;;;;;;;5.90;5.30;;;7.10;99.90;;;;;;7376756;19;20840;-75
2022/04/25 06:35:36;;;;;;;6.07;5.03;;;7.20;99.90;;;;;;7376318;19;20339;-76
2022/04/25 06:38:01;;;;;;;6.35;5.28;;;7.20;99.90;;;;;;7379414;19;20997;-75
2022/04/25 06:40:27;;;;;;;5.80;5.18;;;7.30;99.90;;;;;;7370907;19;20364;-75
2022/04/25 06:42:53;;;;;;;7.33;4.97;;;7.40;99.90;;;;;;7375538;19;20727;-75
2022/04/25 06:45:19;;;;;;;6.25;5.00;;;7.50;99.90;;;;;;7378799;19;20352;-76
2022/04/25 06:47:45;;;;;;;8.00;5.50;;;7.60;99.90;;;;;;7380602;19;20339;-75
2022/04/25 06:50:11;;;;;;;6.40;5.45;;;7.70;99.90;;;;;;7373989;19;20883;-78
2022/04/25 06:52:36;;;;;;;5.28;4.80;;;7.70;99.90;;;;;;7378259;19;20333;-78
2022/04/25 06:55:04;;;;;;;5.73;4.93;;;7.80;99.90;;;;;;7377168;19;20349;-76
2022/04/25 06:57:32;;;;;;;4.85;4.38;;;7.80;99.90;;;;;;7380735;19;20313;-77
2022/04/25 06:59:59;;;;;;;4.90;4.30;;;7.90;99.90;;;;;;7376110;19;20340;-77
2022/04/25 07:02:25;;;;;;;6.43;5.03;;;8.10;99.90;;;;;;7376661;19;20433;-77
2022/04/25 07:04:50;;;;;;;5.20;4.60;;;8.20;99.90;;;;;;7378751;19;20451;-77
2022/04/25 07:07:17;;;;;;;5.80;5.13;;;8.20;99.90;;;;;;7381470;19;20368;-77
2022/04/25 07:09:43;;;;;;;5.30;4.80;;;8.20;99.90;;;;;;7375647;19;20431;-77
2022/04/25 07:12:09;;;;;;;5.80;4.68;;;8.20;99.90;;;;;;7380050;19;20337;-75
2022/04/25 07:14:34;;;;;;;5.90;4.50;;;8.10;99.90;;;;;;7375121;19;20359;-77
2022/04/25 07:17:02;;;;;;;4.93;4.43;;;8.10;99.90;;;;;;7380013;19;20392;-77
2022/04/25 07:19:28;;;;;;;5.00;4.45;;;8.30;99.90;;;;;;7379364;19;20324;-78
2022/04/25 07:30:07;;;;;;;6.03;4.28;;;8.60;99.90;;;;;;7271291;19;2004346;-77
2022/04/25 07:32:33;;;;;;;4.13;3.72;;;8.40;99.90;;;;;;7375880;19;20409;-77
2022/04/25 07:34:58;;;;;;;5.53;4.30;;;8.60;99.90;;;;;;7376883;19;21184;-77
2022/04/25 07:37:24;;;;;;;4.30;3.90;;;8.60;99.90;;;;;;7381052;19;20327;-77
2022/04/25 07:39:50;;;;;;;5.03;4.18;;;8.90;99.90;;;;;;7374351;19;20689;-78
2022/04/25 07:42:18;;;;;;;5.20;3.80;;;8.90;99.90;;;;;;7373235;19;20355;-77
2022/04/25 07:44:44;;;;;;;4.57;4.18;;;9.30;99.90;;;;;;7377174;19;20783;-80
2022/04/25 07:47:10;;;;;;;5.53;4.20;;;9.40;99.90;;;;;;7374134;19;20379;-77
2022/04/25 07:49:35;;;;;;;5.35;3.80;;;9.50;99.90;;;;;;7372801;19;20436;-76
2022/04/25 07:52:02;;;;;;;4.27;3.87;;;9.80;99.90;;;;;;7383736;19;20416;-84
2022/04/25 07:54:28;;;;;;;4.63;3.85;;;10.00;99.90;;;;;;7374863;19;20345;-84
2022/04/25 07:56:55;;;;;;;4.53;3.95;;;10.00;99.90;;;;;;7372708;19;20332;-88
2022/04/25 07:59:20;;;;;;;3.72;3.42;;;10.20;99.90;;;;;;7374321;19;20408;-82
2022/04/25 08:01:46;;;;;;;4.93;3.88;;;10.50;99.90;;;;;;7370509;19;20420;-79
2022/04/25 08:04:12;;;;;;;4.20;3.60;;;10.60;99.90;;;;;;7376903;19;20343;-81
2022/04/25 08:06:38;;;;;;;3.53;3.22;;;10.50;99.90;;;;;;7376020;19;20328;-79
2022/04/25 08:09:04;;;;;;;4.20;3.50;;;10.80;99.90;;;;;;7373549;19;20323;-78
2022/04/25 08:11:30;;;;;;;4.53;3.90;;;10.80;99.90;;;;;;7372240;19;20313;-80
2022/04/25 08:19:24;;;;;;;3.58;3.20;;;11.00;99.90;;;;;;7271567;19;2004420;-79
2022/04/25 08:21:50;;;;;;;4.03;3.47;;;11.10;99.90;;;;;;7373716;19;20423;-83
2022/04/25 08:24:17;;;;;;;5.05;3.13;;;11.40;99.90;;;;;;7376436;19;20345;-85
2022/04/25 08:26:42;;;;;;;4.20;3.50;;;11.50;99.90;;;;;;7375770;19;20399;-81
2022/04/25 08:29:08;;;;;;;3.78;3.13;;;11.20;99.90;;;;;;7375170;19;20380;-81
2022/04/25 08:31:35;;;;;;;3.83;3.30;;;11.50;99.90;;;;;;7370778;19;20317;-77
2022/04/25 08:34:02;;;;;;;4.03;3.03;;;11.80;99.90;;;;;;7373898;19;20305;-80
2022/04/25 08:36:28;;;;;;;4.27;3.70;;;12.10;99.90;;;;;;7375223;19;21103;-78
2022/04/25 08:38:53;;;;;;;3.88;3.00;;;11.80;99.90;;;;;;7370244;19;20347;-79
2022/04/25 08:41:22;;;;;;;3.80;3.40;;;12.00;99.90;;;;;;7370999;19;20364;-81
2022/04/25 08:43:51;;;;;;;3.85;3.08;;;11.70;99.90;;;;;;7374190;19;20377;-82
2022/04/25 08:46:16;;;;;;;3.72;3.17;;;12.10;99.90;;;;;;7372425;19;20328;-82
2022/04/25 08:48:42;;;;;;;3.20;2.90;;;11.60;99.90;;;;;;7375042;19;21340;-78
2022/04/25 08:51:07;;;;;;;3.63;3.20;;;11.80;99.90;;;;;;7367578;19;20369;-81
2022/04/25 08:53:34;;;;;;;3.83;3.43;;;11.50;99.90;;;;;;7373175;19;20332;-82
2022/04/25 08:56:01;;;;;;;4.00;3.33;;;11.30;99.90;;;;;;7372116;19;20317;-82
2022/04/25 08:58:26;;;;;;;3.60;3.10;;;11.40;99.90;;;;;;7373115;19;20898;-78
2022/04/25 09:00:52;;;;;;;3.90;2.97;;;11.60;99.90;;;;;;7365026;19;20377;-83
2022/04/25 09:03:18;;;;;;;2.60;2.40;;;12.00;99.90;;;;;;7373399;19;20363;-78
2022/04/25 09:05:44;;;;;;;3.20;2.73;;;12.10;99.90;;;;;;7372665;19;20317;-78
2022/04/25 09:08:09;;;;;;;3.47;2.80;;;12.40;99.90;;;;;;7377985;19;20885;-80
2022/04/25 09:10:36;;;;;;;3.50;2.73;;;12.70;99.90;;;;;;7351697;19;20712;-80
2022/04/25 09:13:01;;;;;;;3.22;2.75;;;12.90;99.90;;;;;;7377395;19;20344;-81
2022/04/25 09:15:27;;;;;;;3.23;2.93;;;13.00;99.90;;;;;;7371044;19;20339;-81
2022/04/25 09:17:54;;;;;;;3.03;2.72;;;13.20;99.90;;;;;;7378605;19;20349;-84
2022/04/25 09:20:20;;;;;;;2.78;2.58;;;13.00;99.90;;;;;;7376378;19;20375;-80
2022/04/25 09:22:46;;;;;;;2.53;2.33;;;12.30;99.90;;;;;;7373117;19;20340;-79
2022/04/25 09:25:13;;;;;;;2.95;2.42;;;12.60;99.90;;;;;;7372171;19;20381;-77
2022/04/25 09:27:39;;;;;;;3.58;2.88;;;12.90;99.90;;;;;;7374474;19;20364;-77
2022/04/25 09:30:20;;;;;;;3.92;2.90;;;13.20;99.90;;;;;;7370135;19;20685;-77
2022/04/25 09:32:50;;;;;;;3.20;2.90;;;13.10;99.90;;;;;;7372403;19;21032;-81
2022/04/25 09:35:40;;;;;;;3.10;2.67;;;12.80;99.90;;;;;;7373506;19;20356;-80
2022/04/25 09:38:06;;;;;;;2.40;2.20;;;13.30;99.90;;;;;;7274290;19;2004532;-75
2022/04/25 09:40:33;;;;;;;4.28;2.70;;;13.80;99.90;;;;;;7368141;19;20440;-76
2022/04/25 09:43:12;;;;;;;2.83;2.40;;;14.00;99.90;;;;;;7368148;19;20439;-81
2022/04/25 09:45:40;;;;;;;3.17;2.47;;;13.70;99.90;;;;;;7369666;19;20349;-78
2022/04/25 09:48:09;;;;;;;3.45;3.10;;;13.70;99.90;;;;;;7373301;19;20349;-80
2022/04/25 09:50:35;;;;;;;3.60;2.90;;;13.70;99.90;;;;;;7372902;19;20320;-84
2022/04/25 09:53:02;;;;;;;3.60;2.80;;;14.20;99.90;;;;;;7376062;19;20372;-79
2022/04/25 09:55:35;;;;;;;2.90;2.70;;;14.00;99.90;;;;;;7372316;19;20895;-77
2022/04/25 09:58:17;;;;;;;2.75;2.50;;;14.10;99.90;;;;;;7272880;19;2019508;-76
2022/04/25 10:00:42;;;;;;;2.80;2.60;;;13.90;99.90;;;;;;7271776;19;2004294;-76
2022/04/25 10:03:08;;;;;;;3.30;2.80;;;14.30;99.90;;;;;;7380049;19;21075;-78
2022/04/25 10:05:38;;;;;;;3.28;2.67;;;14.50;99.90;;;;;;7375241;19;20340;-78
2022/04/25 10:08:04;;;;;;;3.38;3.08;;;14.60;99.90;;;;;;7376941;19;20321;-76
2022/04/25 10:10:30;;;;;;;3.15;2.85;;;14.70;99.90;;;;;;7376209;19;20328;-79
2022/04/25 10:12:55;;;;;;;3.42;3.13;;;14.70;99.90;;;;;;7377556;19;20337;-78
2022/04/25 10:15:22;;;;;;;3.15;2.88;;;14.50;99.90;;;;;;7373598;19;20333;-76
2022/04/25 10:17:47;;;;;;;4.00;3.30;;;14.40;99.90;;;;;;7372014;19;20364;-76
2022/04/25 10:20:13;;;;;;;3.37;3.07;;;14.50;99.90;;;;;;7374460;19;20776;-77
2022/04/25 10:22:39;;;;;;;3.50;3.20;;;14.80;99.90;;;;;;7380657;19;20392;-81
2022/04/25 10:25:04;;;;;;;3.20;2.90;;;14.60;99.90;;;;;;7373635;19;21282;-77
2022/04/25 10:27:32;;;;;;;3.30;2.90;;;14.70;99.90;;;;;;7375156;19;20398;-80
2022/04/25 10:30:10;;;;;;;3.28;2.95;;;14.80;99.90;;;;;;7374751;19;20359;-80
2022/04/25 10:32:36;;;;;;;4.57;3.10;;;14.90;99.90;;;;;;7379045;19;20399;-81
2022/04/25 10:35:02;;;;;;;3.30;2.83;;;15.10;99.90;;;;;;7374973;19;20434;-82
2022/04/25 10:37:34;;;;;;;4.00;2.80;;;15.20;99.90;;;;;;7375772;19;20320;-78
2022/04/25 10:40:14;;;;;;;2.95;2.65;;;15.20;99.90;;;;;;7271956;19;2004251;-76
2022/04/25 10:45:59;;;;;;;2.90;2.60;;;14.40;99.90;;;;;;7170574;19;2004481;-78
2022/04/25 10:48:28;;;;;;;3.28;3.08;;;14.00;99.90;;;;;;7380277;19;20345;-79
2022/04/25 10:51:10;;;;;;;3.92;2.65;;;13.60;99.90;;;;;;7375664;19;20355;-75
2022/04/25 10:54:01;;;;;;;3.20;2.90;;;13.60;99.90;;;;;;7380344;19;20340;-75
2022/04/25 10:56:30;;;;;;;3.25;2.95;;;13.90;99.90;;;;;;7268773;19;2020032;-76
2022/04/25 10:59:20;;;;;;;2.90;2.70;;;14.00;99.90;;;;;;7376559;19;20336;-79
2022/04/25 11:01:46;;;;;;;2.70;2.50;;;14.00;99.90;;;;;;7269832;19;2004333;-79
2022/04/25 11:04:13;;;;;;;3.13;2.77;;;14.00;99.90;;;;;;7377865;19;20346;-83
2022/04/25 11:06:39;;;;;;;2.80;2.60;;;14.20;99.90;;;;;;7371374;19;20379;-79
2022/04/25 11:09:05;;;;;;;3.45;3.00;;;14.40;99.90;;;;;;7375188;19;20445;-77
2022/04/25 11:11:46;;;;;;;3.00;2.80;;;14.40;99.90;;;;;;7374568;19;20407;-77
2022/04/25 11:14:12;;;;;;;3.25;2.47;;;14.50;99.90;;;;;;7275454;19;2004641;-77
2022/04/25 11:16:39;;;;;;;3.40;3.10;;;14.60;99.90;;;;;;7374044;19;20368;-82
2022/04/25 11:19:22;;;;;;;5.40;2.95;;;14.60;99.90;;;;;;7377676;19;20339;-79
2022/04/25 11:21:55;;;;;;;3.13;2.83;;;14.70;99.90;;;;;;7371683;19;20357;-76
2022/04/25 11:24:38;;;;;;;2.95;2.50;;;15.40;99.90;;;;;;7375505;19;20345;-81
2022/04/25 11:27:09;;;;;;;2.88;2.40;;;15.40;99.90;;;;;;7375518;19;20993;-77
2022/04/25 11:29:44;;;;;;;2.60;2.40;;;15.40;99.90;;;;;;7373824;19;20356;-81
2022/04/25 11:32:35;;;;;;;2.67;2.47;;;15.20;99.90;;;;;;7371266;19;20348;-77
2022/04/25 11:35:01;;;;;;;3.72;2.50;;;15.10;99.90;;;;;;7374667;19;20350;-77
2022/04/25 11:37:28;;;;;;;2.60;2.40;;;15.10;99.90;;;;;;7377234;19;20352;-80
2022/04/25 11:39:58;;;;;;;4.00;2.60;;;15.10;99.90;;;;;;7373685;19;20424;-75
2022/04/25 11:42:30;;;;;;;2.90;2.47;;;15.10;99.90;;;;;;7374024;19;20341;-76
2022/04/25 11:44:57;;;;;;;2.73;2.53;;;15.00;99.90;;;;;;7374654;19;20368;-84
2022/04/25 11:47:23;;;;;;;2.42;2.22;;;15.00;99.90;;;;;;7378261;19;20802;-78
2022/04/25 11:49:55;;;;;;;6.47;2.57;;;14.80;99.90;;;;;;7375066;19;20447;-78
2022/04/25 11:52:21;;;;;;;2.83;2.33;;;14.50;99.90;;;;;;7376143;19;20352;-76
2022/04/25 11:54:46;;;;;;;2.78;2.50;;;14.10;99.90;;;;;;7373330;19;20675;-81
2022/04/25 11:57:12;;;;;;;2.40;2.20;;;13.80;99.90;;;;;;7375748;19;20329;-77
2022/04/25 11:59:37;;;;;;;4.90;2.60;;;14.00;99.90;;;;;;7372327;19;20420;-76
2022/04/25 12:02:03;;;;;;;2.63;2.43;;;14.00;99.90;;;;;;7368826;19;20325;-77
2022/04/25 12:04:30;;;;;;;2.78;2.42;;;14.00;99.90;;;;;;7374638;19;21003;-77
2022/04/25 12:06:56;;;;;;;3.10;2.60;;;14.00;99.90;;;;;;7374593;19;20353;-79
2022/04/25 12:17:51;;;;;;;2.50;2.10;;;14.20;99.90;;;;;;7275200;19;2004765;-78
2022/04/25 12:20:29;;;;;;;2.50;2.30;;;14.30;99.90;;;;;;7369073;19;21311;-79
2022/04/25 12:22:58;;;;;;;2.20;2.00;;;13.00;99.90;;;;;;7270525;19;2005089;-78
2022/04/25 12:25:30;;;;;;;2.35;2.00;;;13.60;99.90;;;;;;7370435;19;21230;-76
2022/04/25 12:28:05;;;;;;;1.80;1.70;;;13.80;99.90;;;;;;7372783;19;20383;-77
2022/04/25 12:30:50;;;;;;;2.00;1.90;;;14.10;99.90;;;;;;7370275;19;20381;-77
2022/04/25 12:33:16;;;;;;;3.45;2.00;;;14.30;99.90;;;;;;7373055;19;20709;-77
2022/04/25 12:35:43;;;;;;;2.90;2.10;;;14.30;99.90;;;;;;7368013;19;20482;-76
2022/04/25 12:38:10;;;;;;;2.33;2.15;;;14.40;99.90;;;;;;7374757;19;20895;-75
2022/04/25 12:40:55;;;;;;;2.63;2.10;;;14.60;99.90;;;;;;7372855;19;20347;-77
2022/04/25 12:43:41;;;;;;;3.10;2.35;;;14.60;99.90;;;;;;7376577;19;20347;-76
2022/04/25 12:46:06;;;;;;;2.50;2.30;;;14.70;99.90;;;;;;7267061;19;2004427;-76
2022/04/25 12:48:59;;;;;;;4.23;2.53;;;14.90;99.90;;;;;;7372232;19;20316;-76
2022/04/25 12:51:51;;;;;;;2.63;2.30;;;14.80;99.90;;;;;;7270195;19;2004661;-75
2022/04/25 12:54:33;;;;;;;2.38;2.17;;;14.60;99.90;;;;;;7374336;19;20373;-75
2022/04/25 12:57:09;;;;;;;3.05;2.22;;;15.10;99.90;;;;;;7369513;19;20640;-77
2022/04/25 12:59:35;;;;;;;3.10;2.50;;;15.10;99.90;;;;;;7371078;19;20323;-77
2022/04/25 13:02:15;;;;;;;2.63;2.42;;;15.00;99.90;;;;;;7371259;19;20316;-76
2022/04/25 13:05:03;;;;;;;3.28;2.30;;;15.10;99.90;;;;;;7373699;19;20363;-76
2022/04/25 13:07:38;;;;;;;3.53;2.65;;;15.20;99.90;;;;;;7372670;19;20312;-77
2022/04/25 13:10:14;;;;;;;3.35;3.05;;;15.20;99.90;;;;;;7371509;19;20367;-74
2022/04/25 13:12:44;;;;;;;3.30;2.47;;;14.70;99.90;;;;;;7374164;19;20321;-78
2022/04/25 13:15:14;;;;;;;2.33;2.13;;;14.80;99.90;;;;;;7366660;19;20337;-76
2022/04/25 13:17:40;;;;;;;5.55;2.47;;;14.80;99.90;;;;;;7370260;19;20910;-76
2022/04/25 13:20:07;;;;;;;1.90;1.80;;;15.10;99.90;;;;;;7370839;19;20368;-80
2022/04/25 13:22:33;;;;;;;3.60;2.20;;;15.30;99.90;;;;;;7373616;19;20308;-76
2022/04/25 13:24:59;;;;;;;2.20;2.00;;;14.70;99.90;;;;;;7369290;19;21377;-75
2022/04/25 13:27:25;;;;;;;1.90;1.80;;;14.60;99.90;;;;;;7373277;19;20346;-77
2022/04/25 13:29:51;;;;;;;2.40;2.15;;;14.70;99.90;;;;;;7368778;19;21187;-78
2022/04/25 13:32:17;;;;;;;3.30;2.58;;;14.60;99.90;;;;;;7373960;19;20317;-78
2022/04/25 13:34:42;;;;;;;4.37;2.87;;;14.10;99.90;;;;;;7371440;19;20336;-78
2022/04/25 13:37:08;;;;;;;3.20;2.90;;;14.10;99.90;;;;;;7370570;19;20345;-75